sensor_id;sensor_type;location;lat;lon;timestamp;P1;durP1;ratioP1;P2;durP2;ratioP2
6195;SDS011;3131;42.630;23.382;2022-09-30T00:02:07;13.07;;;9.13;;
6195;SDS011;3131;42.630;23.382;2022-09-30T00:04:37;13.90;;;8.57;;
6195;SDS011;3131;42.630;23.382;2022-09-30T00:07:06;13.50;;;9.43;;
6195;SDS011;3131;42.630;23.382;2022-09-30T00:09:36;13.33;;;8.83;;
6195;SDS011;3131;42.630;23.382;2022-09-30T00:12:05;21.47;;;10.47;;
6195;SDS011;3131;42.630;23.382;2022-09-30T00:14:35;16.70;;;7.57;;
6195;SDS011;3131;42.630;23.382;2022-09-30T00:17:05;16.93;;;8.23;;
6195;SDS011;3131;42.630;23.382;2022-09-30T00:19:34;10.13;;;7.00;;
6195;SDS011;3131;42.630;23.382;2022-09-30T00:22:03;16.37;;;8.80;;
6195;SDS011;3131;42.630;23.382;2022-09-30T00:24:33;12.00;;;7.90;;
6195;SDS011;3131;42.630;23.382;2022-09-30T00:27:02;11.00;;;7.37;;
6195;SDS011;3131;42.630;23.382;2022-09-30T00:29:31;19.07;;;12.50;;
6195;SDS011;3131;42.630;23.382;2022-09-30T00:32:01;11.73;;;8.30;;
6195;SDS011;3131;42.630;23.382;2022-09-30T00:34:30;16.60;;;9.43;;
6195;SDS011;3131;42.630;23.382;2022-09-30T00:37:00;16.87;;;8.27;;
6195;SDS011;3131;42.630;23.382;2022-09-30T00:39:29;13.10;;;8.50;;
6195;SDS011;3131;42.630;23.382;2022-09-30T00:42:01;11.43;;;7.63;;
6195;SDS011;3131;42.630;23.382;2022-09-30T00:47:42;10.77;;;6.63;;
6195;SDS011;3131;42.630;23.382;2022-09-30T00:50:18;11.50;;;7.50;;
6195;SDS011;3131;42.630;23.382;2022-09-30T00:52:56;16.43;;;7.80;;
6195;SDS011;3131;42.630;23.382;2022-09-30T00:55:43;10.97;;;8.07;;
6195;SDS011;3131;42.630;23.382;2022-09-30T00:58:16;12.37;;;7.43;;
6195;SDS011;3131;42.630;23.382;2022-09-30T01:00:48;10.83;;;7.50;;
6195;SDS011;3131;42.630;23.382;2022-09-30T01:03:18;11.50;;;8.07;;
6195;SDS011;3131;42.630;23.382;2022-09-30T01:05:49;11.70;;;8.30;;
6195;SDS011;3131;42.630;23.382;2022-09-30T01:08:19;11.57;;;7.57;;
6195;SDS011;3131;42.630;23.382;2022-09-30T01:10:50;13.23;;;7.33;;
6195;SDS011;3131;42.630;23.382;2022-09-30T01:13:19;10.33;;;7.47;;
6195;SDS011;3131;42.630;23.382;2022-09-30T01:16:05;7.93;;;6.50;;
6195;SDS011;3131;42.630;23.382;2022-09-30T01:18:46;9.97;;;6.93;;
6195;SDS011;3131;42.630;23.382;2022-09-30T01:21:25;8.17;;;6.47;;
6195;SDS011;3131;42.630;23.382;2022-09-30T01:24:18;12.43;;;5.87;;
6195;SDS011;3131;42.630;23.382;2022-09-30T01:27:04;11.07;;;6.50;;
6195;SDS011;3131;42.630;23.382;2022-09-30T01:29:48;9.63;;;6.93;;
6195;SDS011;3131;42.630;23.382;2022-09-30T01:35:46;18.87;;;7.23;;
6195;SDS011;3131;42.630;23.382;2022-09-30T01:38:40;11.30;;;6.97;;
6195;SDS011;3131;42.630;23.382;2022-09-30T01:41:14;10.13;;;7.53;;
6195;SDS011;3131;42.630;23.382;2022-09-30T01:43:45;9.33;;;7.37;;
6195;SDS011;3131;42.630;23.382;2022-09-30T01:46:20;11.67;;;7.83;;
6195;SDS011;3131;42.630;23.382;2022-09-30T01:48:52;9.53;;;7.40;;
6195;SDS011;3131;42.630;23.382;2022-09-30T01:51:26;12.47;;;7.77;;
6195;SDS011;3131;42.630;23.382;2022-09-30T01:53:58;11.53;;;7.73;;
6195;SDS011;3131;42.630;23.382;2022-09-30T01:56:39;9.67;;;8.27;;
6195;SDS011;3131;42.630;23.382;2022-09-30T01:59:13;17.50;;;8.83;;
6195;SDS011;3131;42.630;23.382;2022-09-30T02:01:45;11.93;;;8.10;;
6195;SDS011;3131;42.630;23.382;2022-09-30T02:04:18;11.20;;;8.27;;
6195;SDS011;3131;42.630;23.382;2022-09-30T02:06:50;10.90;;;8.20;;
6195;SDS011;3131;42.630;23.382;2022-09-30T02:09:22;13.70;;;7.97;;
6195;SDS011;3131;42.630;23.382;2022-09-30T02:11:53;12.00;;;8.30;;
6195;SDS011;3131;42.630;23.382;2022-09-30T02:14:26;14.60;;;9.40;;
6195;SDS011;3131;42.630;23.382;2022-09-30T02:16:58;12.83;;;8.93;;
6195;SDS011;3131;42.630;23.382;2022-09-30T02:19:30;12.40;;;8.77;;
6195;SDS011;3131;42.630;23.382;2022-09-30T02:22:04;12.77;;;9.50;;
6195;SDS011;3131;42.630;23.382;2022-09-30T02:24:34;12.83;;;9.33;;
6195;SDS011;3131;42.630;23.382;2022-09-30T02:27:07;13.67;;;9.17;;
6195;SDS011;3131;42.630;23.382;2022-09-30T02:29:38;9.73;;;8.00;;
6195;SDS011;3131;42.630;23.382;2022-09-30T02:32:12;13.13;;;8.40;;
6195;SDS011;3131;42.630;23.382;2022-09-30T02:34:44;14.83;;;8.97;;
6195;SDS011;3131;42.630;23.382;2022-09-30T02:37:16;16.80;;;9.40;;
6195;SDS011;3131;42.630;23.382;2022-09-30T02:39:49;12.13;;;9.30;;
6195;SDS011;3131;42.630;23.382;2022-09-30T02:42:30;17.60;;;8.53;;
6195;SDS011;3131;42.630;23.382;2022-09-30T02:45:00;15.57;;;9.93;;
6195;SDS011;3131;42.630;23.382;2022-09-30T02:47:35;14.63;;;9.53;;
6195;SDS011;3131;42.630;23.382;2022-09-30T02:50:09;14.37;;;8.30;;
6195;SDS011;3131;42.630;23.382;2022-09-30T02:53:01;17.80;;;10.93;;
6195;SDS011;3131;42.630;23.382;2022-09-30T02:55:43;15.97;;;10.43;;
6195;SDS011;3131;42.630;23.382;2022-09-30T02:58:16;16.33;;;8.77;;
6195;SDS011;3131;42.630;23.382;2022-09-30T03:00:49;13.80;;;8.40;;
6195;SDS011;3131;42.630;23.382;2022-09-30T03:03:20;17.60;;;9.83;;
6195;SDS011;3131;42.630;23.382;2022-09-30T03:05:51;16.03;;;8.77;;
6195;SDS011;3131;42.630;23.382;2022-09-30T03:08:21;15.67;;;9.63;;
6195;SDS011;3131;42.630;23.382;2022-09-30T03:10:50;13.43;;;9.27;;
6195;SDS011;3131;42.630;23.382;2022-09-30T03:13:24;15.60;;;9.47;;
6195;SDS011;3131;42.630;23.382;2022-09-30T03:16:05;20.47;;;10.57;;
6195;SDS011;3131;42.630;23.382;2022-09-30T03:18:50;15.50;;;9.73;;
6195;SDS011;3131;42.630;23.382;2022-09-30T03:21:28;16.43;;;9.63;;
6195;SDS011;3131;42.630;23.382;2022-09-30T03:24:24;15.50;;;10.27;;
6195;SDS011;3131;42.630;23.382;2022-09-30T03:27:02;40.53;;;23.07;;
6195;SDS011;3131;42.630;23.382;2022-09-30T03:29:35;16.47;;;10.73;;
6195;SDS011;3131;42.630;23.382;2022-09-30T03:32:09;18.07;;;10.27;;
6195;SDS011;3131;42.630;23.382;2022-09-30T03:34:43;14.70;;;10.63;;
6195;SDS011;3131;42.630;23.382;2022-09-30T03:37:20;17.73;;;10.07;;
6195;SDS011;3131;42.630;23.382;2022-09-30T03:39:52;17.20;;;10.43;;
6195;SDS011;3131;42.630;23.382;2022-09-30T03:42:24;17.67;;;10.47;;
6195;SDS011;3131;42.630;23.382;2022-09-30T03:45:12;18.70;;;10.40;;
6195;SDS011;3131;42.630;23.382;2022-09-30T03:47:46;19.67;;;11.03;;
6195;SDS011;3131;42.630;23.382;2022-09-30T03:50:18;18.10;;;11.03;;
6195;SDS011;3131;42.630;23.382;2022-09-30T03:52:49;29.17;;;14.10;;
6195;SDS011;3131;42.630;23.382;2022-09-30T03:55:19;20.43;;;11.50;;
6195;SDS011;3131;42.630;23.382;2022-09-30T03:57:50;27.67;;;12.33;;
6195;SDS011;3131;42.630;23.382;2022-09-30T04:00:20;31.23;;;15.30;;
6195;SDS011;3131;42.630;23.382;2022-09-30T04:02:49;64.70;;;17.80;;
6195;SDS011;3131;42.630;23.382;2022-09-30T04:05:18;29.90;;;14.70;;
6195;SDS011;3131;42.630;23.382;2022-09-30T04:07:47;46.30;;;16.27;;
6195;SDS011;3131;42.630;23.382;2022-09-30T04:10:16;33.73;;;16.70;;
6195;SDS011;3131;42.630;23.382;2022-09-30T04:12:46;60.20;;;17.37;;
6195;SDS011;3131;42.630;23.382;2022-09-30T04:15:15;89.43;;;16.93;;
6195;SDS011;3131;42.630;23.382;2022-09-30T04:17:45;91.90;;;17.60;;
6195;SDS011;3131;42.630;23.382;2022-09-30T04:20:14;122.10;;;19.27;;
6195;SDS011;3131;42.630;23.382;2022-09-30T04:22:43;27.27;;;14.47;;
6195;SDS011;3131;42.630;23.382;2022-09-30T04:25:13;67.07;;;16.33;;
6195;SDS011;3131;42.630;23.382;2022-09-30T04:27:42;61.93;;;17.87;;
6195;SDS011;3131;42.630;23.382;2022-09-30T04:30:11;179.20;;;20.70;;
6195;SDS011;3131;42.630;23.382;2022-09-30T04:32:42;46.13;;;15.20;;
6195;SDS011;3131;42.630;23.382;2022-09-30T04:35:11;41.90;;;16.13;;
6195;SDS011;3131;42.630;23.382;2022-09-30T04:37:41;98.83;;;19.33;;
6195;SDS011;3131;42.630;23.382;2022-09-30T04:40:12;106.53;;;19.83;;
6195;SDS011;3131;42.630;23.382;2022-09-30T04:42:43;65.77;;;16.60;;
6195;SDS011;3131;42.630;23.382;2022-09-30T04:45:12;98.00;;;18.40;;
6195;SDS011;3131;42.630;23.382;2022-09-30T04:47:42;79.37;;;18.63;;
6195;SDS011;3131;42.630;23.382;2022-09-30T04:50:12;65.20;;;19.03;;
6195;SDS011;3131;42.630;23.382;2022-09-30T04:52:41;75.60;;;19.43;;
6195;SDS011;3131;42.630;23.382;2022-09-30T04:55:11;66.20;;;17.43;;
6195;SDS011;3131;42.630;23.382;2022-09-30T04:57:43;61.80;;;20.17;;
6195;SDS011;3131;42.630;23.382;2022-09-30T05:00:12;69.07;;;19.97;;
6195;SDS011;3131;42.630;23.382;2022-09-30T05:02:42;98.13;;;19.40;;
6195;SDS011;3131;42.630;23.382;2022-09-30T05:05:12;50.80;;;18.67;;
6195;SDS011;3131;42.630;23.382;2022-09-30T05:07:41;64.27;;;18.60;;
6195;SDS011;3131;42.630;23.382;2022-09-30T05:10:10;38.37;;;17.33;;
6195;SDS011;3131;42.630;23.382;2022-09-30T05:12:41;46.73;;;19.33;;
6195;SDS011;3131;42.630;23.382;2022-09-30T05:15:11;46.27;;;16.47;;
6195;SDS011;3131;42.630;23.382;2022-09-30T05:17:40;48.23;;;17.10;;
6195;SDS011;3131;42.630;23.382;2022-09-30T05:20:09;69.23;;;16.80;;
6195;SDS011;3131;42.630;23.382;2022-09-30T05:22:38;37.70;;;16.37;;
6195;SDS011;3131;42.630;23.382;2022-09-30T05:25:08;38.00;;;17.00;;
6195;SDS011;3131;42.630;23.382;2022-09-30T05:27:37;25.57;;;15.07;;
6195;SDS011;3131;42.630;23.382;2022-09-30T05:30:08;31.27;;;15.67;;
6195;SDS011;3131;42.630;23.382;2022-09-30T05:32:37;30.57;;;16.73;;
6195;SDS011;3131;42.630;23.382;2022-09-30T05:35:07;32.57;;;17.73;;
6195;SDS011;3131;42.630;23.382;2022-09-30T05:37:37;30.20;;;16.97;;
6195;SDS011;3131;42.630;23.382;2022-09-30T05:40:07;32.47;;;17.53;;
6195;SDS011;3131;42.630;23.382;2022-09-30T05:42:37;38.70;;;19.27;;
6195;SDS011;3131;42.630;23.382;2022-09-30T05:45:07;46.37;;;19.40;;
6195;SDS011;3131;42.630;23.382;2022-09-30T05:47:36;35.80;;;17.77;;
6195;SDS011;3131;42.630;23.382;2022-09-30T05:50:06;29.67;;;15.73;;
6195;SDS011;3131;42.630;23.382;2022-09-30T05:52:36;38.47;;;17.80;;
6195;SDS011;3131;42.630;23.382;2022-09-30T05:55:06;37.17;;;18.50;;
6195;SDS011;3131;42.630;23.382;2022-09-30T05:57:36;32.50;;;18.33;;
6195;SDS011;3131;42.630;23.382;2022-09-30T06:00:06;41.43;;;20.20;;
6195;SDS011;3131;42.630;23.382;2022-09-30T06:02:37;37.83;;;19.93;;
6195;SDS011;3131;42.630;23.382;2022-09-30T06:05:17;34.70;;;19.83;;
6195;SDS011;3131;42.630;23.382;2022-09-30T06:07:47;45.10;;;22.07;;
6195;SDS011;3131;42.630;23.382;2022-09-30T06:10:16;34.63;;;20.10;;
6195;SDS011;3131;42.630;23.382;2022-09-30T06:12:46;38.43;;;20.57;;
6195;SDS011;3131;42.630;23.382;2022-09-30T06:15:15;43.90;;;21.27;;
6195;SDS011;3131;42.630;23.382;2022-09-30T06:17:45;38.27;;;19.47;;
6195;SDS011;3131;42.630;23.382;2022-09-30T06:20:35;35.60;;;18.63;;
6195;SDS011;3131;42.630;23.382;2022-09-30T06:23:05;48.67;;;19.37;;
6195;SDS011;3131;42.630;23.382;2022-09-30T06:25:34;32.97;;;19.27;;
6195;SDS011;3131;42.630;23.382;2022-09-30T06:28:03;25.30;;;14.77;;
6195;SDS011;3131;42.630;23.382;2022-09-30T06:30:33;28.60;;;15.63;;
6195;SDS011;3131;42.630;23.382;2022-09-30T06:33:02;30.13;;;15.77;;
6195;SDS011;3131;42.630;23.382;2022-09-30T06:35:31;25.57;;;16.47;;
6195;SDS011;3131;42.630;23.382;2022-09-30T06:38:00;30.17;;;18.40;;
6195;SDS011;3131;42.630;23.382;2022-09-30T06:40:30;31.30;;;16.93;;
6195;SDS011;3131;42.630;23.382;2022-09-30T06:42:59;36.73;;;17.63;;
6195;SDS011;3131;42.630;23.382;2022-09-30T06:45:29;30.10;;;16.67;;
6195;SDS011;3131;42.630;23.382;2022-09-30T06:48:01;28.77;;;17.83;;
6195;SDS011;3131;42.630;23.382;2022-09-30T06:50:33;27.63;;;14.27;;
6195;SDS011;3131;42.630;23.382;2022-09-30T06:53:04;21.70;;;13.37;;
6195;SDS011;3131;42.630;23.382;2022-09-30T06:55:34;28.60;;;13.63;;
6195;SDS011;3131;42.630;23.382;2022-09-30T06:58:05;29.37;;;13.33;;
6195;SDS011;3131;42.630;23.382;2022-09-30T07:00:36;23.77;;;13.70;;
6195;SDS011;3131;42.630;23.382;2022-09-30T07:03:06;23.63;;;14.13;;
6195;SDS011;3131;42.630;23.382;2022-09-30T07:05:38;27.13;;;15.97;;
6195;SDS011;3131;42.630;23.382;2022-09-30T07:08:08;30.63;;;15.93;;
6195;SDS011;3131;42.630;23.382;2022-09-30T07:10:37;34.30;;;15.87;;
6195;SDS011;3131;42.630;23.382;2022-09-30T07:13:06;35.37;;;15.07;;
6195;SDS011;3131;42.630;23.382;2022-09-30T07:15:35;29.10;;;16.47;;
6195;SDS011;3131;42.630;23.382;2022-09-30T07:18:05;33.83;;;14.83;;
6195;SDS011;3131;42.630;23.382;2022-09-30T07:20:34;48.53;;;17.30;;
6195;SDS011;3131;42.630;23.382;2022-09-30T07:23:03;41.90;;;20.13;;
6195;SDS011;3131;42.630;23.382;2022-09-30T07:25:33;35.93;;;22.33;;
6195;SDS011;3131;42.630;23.382;2022-09-30T07:28:02;36.07;;;21.23;;
6195;SDS011;3131;42.630;23.382;2022-09-30T07:30:31;35.57;;;20.00;;
6195;SDS011;3131;42.630;23.382;2022-09-30T07:33:00;41.77;;;21.33;;
6195;SDS011;3131;42.630;23.382;2022-09-30T07:35:29;35.03;;;19.83;;
6195;SDS011;3131;42.630;23.382;2022-09-30T07:37:59;35.83;;;21.97;;
6195;SDS011;3131;42.630;23.382;2022-09-30T07:40:28;41.17;;;20.60;;
6195;SDS011;3131;42.630;23.382;2022-09-30T07:42:58;35.57;;;21.47;;
6195;SDS011;3131;42.630;23.382;2022-09-30T07:45:28;40.40;;;22.13;;
6195;SDS011;3131;42.630;23.382;2022-09-30T07:47:57;41.83;;;21.07;;
6195;SDS011;3131;42.630;23.382;2022-09-30T07:50:28;36.67;;;21.50;;
6195;SDS011;3131;42.630;23.382;2022-09-30T07:52:57;36.60;;;20.57;;
6195;SDS011;3131;42.630;23.382;2022-09-30T07:55:26;40.93;;;19.53;;
6195;SDS011;3131;42.630;23.382;2022-09-30T07:57:55;57.47;;;20.60;;
6195;SDS011;3131;42.630;23.382;2022-09-30T08:00:25;75.57;;;20.37;;
6195;SDS011;3131;42.630;23.382;2022-09-30T08:02:54;48.00;;;18.50;;
6195;SDS011;3131;42.630;23.382;2022-09-30T08:05:23;31.53;;;14.93;;
6195;SDS011;3131;42.630;23.382;2022-09-30T08:07:52;26.00;;;13.63;;
6195;SDS011;3131;42.630;23.382;2022-09-30T08:10:21;22.07;;;11.77;;
6195;SDS011;3131;42.630;23.382;2022-09-30T08:12:51;27.47;;;12.23;;
6195;SDS011;3131;42.630;23.382;2022-09-30T08:15:20;23.87;;;12.53;;
6195;SDS011;3131;42.630;23.382;2022-09-30T08:17:49;36.40;;;10.63;;
6195;SDS011;3131;42.630;23.382;2022-09-30T08:20:18;18.30;;;7.93;;
6195;SDS011;3131;42.630;23.382;2022-09-30T08:22:47;26.37;;;7.73;;
6195;SDS011;3131;42.630;23.382;2022-09-30T08:25:19;21.50;;;8.13;;
6195;SDS011;3131;42.630;23.382;2022-09-30T08:27:48;15.83;;;7.07;;
6195;SDS011;3131;42.630;23.382;2022-09-30T08:30:18;21.43;;;6.73;;
6195;SDS011;3131;42.630;23.382;2022-09-30T08:32:47;12.10;;;5.53;;
6195;SDS011;3131;42.630;23.382;2022-09-30T08:35:16;12.50;;;6.53;;
6195;SDS011;3131;42.630;23.382;2022-09-30T08:37:45;12.67;;;6.27;;
6195;SDS011;3131;42.630;23.382;2022-09-30T08:40:18;32.17;;;8.03;;
6195;SDS011;3131;42.630;23.382;2022-09-30T08:42:54;19.80;;;7.53;;
6195;SDS011;3131;42.630;23.382;2022-09-30T08:45:46;16.30;;;6.00;;
6195;SDS011;3131;42.630;23.382;2022-09-30T08:48:21;14.60;;;5.70;;
6195;SDS011;3131;42.630;23.382;2022-09-30T08:50:58;16.10;;;6.50;;
6195;SDS011;3131;42.630;23.382;2022-09-30T08:53:30;19.70;;;6.57;;
6195;SDS011;3131;42.630;23.382;2022-09-30T08:56:02;14.27;;;6.33;;
6195;SDS011;3131;42.630;23.382;2022-09-30T08:58:49;12.53;;;6.17;;
6195;SDS011;3131;42.630;23.382;2022-09-30T09:01:24;9.07;;;5.33;;
6195;SDS011;3131;42.630;23.382;2022-09-30T09:03:56;11.10;;;5.57;;
6195;SDS011;3131;42.630;23.382;2022-09-30T09:06:28;11.60;;;6.60;;
6195;SDS011;3131;42.630;23.382;2022-09-30T09:09:04;14.03;;;6.57;;
6195;SDS011;3131;42.630;23.382;2022-09-30T09:12:04;25.37;;;6.97;;
6195;SDS011;3131;42.630;23.382;2022-09-30T09:14:38;12.53;;;5.53;;
6195;SDS011;3131;42.630;23.382;2022-09-30T09:17:18;11.60;;;5.60;;
6195;SDS011;3131;42.630;23.382;2022-09-30T09:19:54;16.77;;;5.53;;
6195;SDS011;3131;42.630;23.382;2022-09-30T09:22:25;13.93;;;4.80;;
6195;SDS011;3131;42.630;23.382;2022-09-30T09:24:55;14.20;;;6.47;;
6195;SDS011;3131;42.630;23.382;2022-09-30T09:27:29;14.57;;;4.70;;
6195;SDS011;3131;42.630;23.382;2022-09-30T09:30:02;11.80;;;4.60;;
6195;SDS011;3131;42.630;23.382;2022-09-30T09:32:33;7.57;;;4.70;;
6195;SDS011;3131;42.630;23.382;2022-09-30T09:35:08;17.23;;;5.80;;
6195;SDS011;3131;42.630;23.382;2022-09-30T09:37:43;12.37;;;5.80;;
6195;SDS011;3131;42.630;23.382;2022-09-30T09:40:37;14.17;;;5.57;;
6195;SDS011;3131;42.630;23.382;2022-09-30T09:43:11;14.85;;;5.15;;
6195;SDS011;3131;42.630;23.382;2022-09-30T09:45:53;14.45;;;5.25;;
6195;SDS011;3131;42.630;23.382;2022-09-30T09:48:25;13.32;;;4.92;;
6195;SDS011;3131;42.630;23.382;2022-09-30T09:50:57;15.28;;;5.90;;
6195;SDS011;3131;42.630;23.382;2022-09-30T09:53:34;10.30;;;4.37;;
6195;SDS011;3131;42.630;23.382;2022-09-30T09:56:14;12.65;;;5.33;;
6195;SDS011;3131;42.630;23.382;2022-09-30T09:59:03;21.67;;;5.40;;
6195;SDS011;3131;42.630;23.382;2022-09-30T10:01:41;7.85;;;4.10;;
6195;SDS011;3131;42.630;23.382;2022-09-30T10:04:20;10.43;;;4.03;;
6195;SDS011;3131;42.630;23.382;2022-09-30T10:06:52;9.03;;;3.92;;
6195;SDS011;3131;42.630;23.382;2022-09-30T10:09:25;12.30;;;5.00;;
6195;SDS011;3131;42.630;23.382;2022-09-30T10:14:58;9.35;;;4.50;;
6195;SDS011;3131;42.630;23.382;2022-09-30T10:17:44;17.23;;;4.22;;
6195;SDS011;3131;42.630;23.382;2022-09-30T10:20:20;13.48;;;4.37;;
6195;SDS011;3131;42.630;23.382;2022-09-30T10:23:02;9.70;;;3.90;;
6195;SDS011;3131;42.630;23.382;2022-09-30T10:25:36;6.33;;;3.50;;
6195;SDS011;3131;42.630;23.382;2022-09-30T10:28:19;10.40;;;3.62;;
6195;SDS011;3131;42.630;23.382;2022-09-30T10:30:51;7.75;;;3.27;;
6195;SDS011;3131;42.630;23.382;2022-09-30T10:33:28;13.53;;;3.83;;
6195;SDS011;3131;42.630;23.382;2022-09-30T10:36:11;10.25;;;3.17;;
6195;SDS011;3131;42.630;23.382;2022-09-30T10:39:02;20.40;;;4.12;;
6195;SDS011;3131;42.630;23.382;2022-09-30T10:41:34;8.83;;;3.72;;
6195;SDS011;3131;42.630;23.382;2022-09-30T10:44:05;5.05;;;2.90;;
6195;SDS011;3131;42.630;23.382;2022-09-30T10:46:40;15.98;;;3.25;;
6195;SDS011;3131;42.630;23.382;2022-09-30T10:49:22;9.03;;;3.42;;
6195;SDS011;3131;42.630;23.382;2022-09-30T10:51:53;12.53;;;3.83;;
6195;SDS011;3131;42.630;23.382;2022-09-30T10:54:45;10.72;;;4.55;;
6195;SDS011;3131;42.630;23.382;2022-09-30T10:57:18;8.55;;;3.42;;
6195;SDS011;3131;42.630;23.382;2022-09-30T10:59:50;6.75;;;3.80;;
6195;SDS011;3131;42.630;23.382;2022-09-30T11:02:24;11.68;;;3.72;;
6195;SDS011;3131;42.630;23.382;2022-09-30T11:05:02;6.12;;;3.42;;
6195;SDS011;3131;42.630;23.382;2022-09-30T11:07:35;5.05;;;2.90;;
6195;SDS011;3131;42.630;23.382;2022-09-30T11:10:26;5.53;;;2.77;;
6195;SDS011;3131;42.630;23.382;2022-09-30T11:13:02;4.25;;;2.77;;
6195;SDS011;3131;42.630;23.382;2022-09-30T11:15:37;8.98;;;4.05;;
6195;SDS011;3131;42.630;23.382;2022-09-30T11:18:12;7.03;;;3.67;;
6195;SDS011;3131;42.630;23.382;2022-09-30T11:20:46;7.78;;;4.17;;
6195;SDS011;3131;42.630;23.382;2022-09-30T11:23:18;6.72;;;3.60;;
6195;SDS011;3131;42.630;23.382;2022-09-30T11:25:53;8.70;;;4.03;;
6195;SDS011;3131;42.630;23.382;2022-09-30T11:28:25;9.63;;;3.35;;
6195;SDS011;3131;42.630;23.382;2022-09-30T11:31:01;11.73;;;3.27;;
6195;SDS011;3131;42.630;23.382;2022-09-30T11:36:37;4.97;;;2.87;;
6195;SDS011;3131;42.630;23.382;2022-09-30T11:42:05;4.35;;;2.58;;
6195;SDS011;3131;42.630;23.382;2022-09-30T11:44:38;5.83;;;3.12;;
6195;SDS011;3131;42.630;23.382;2022-09-30T11:53:27;8.80;;;2.87;;
6195;SDS011;3131;42.630;23.382;2022-09-30T11:56:07;8.10;;;3.37;;
6195;SDS011;3131;42.630;23.382;2022-09-30T11:58:42;5.78;;;3.05;;
6195;SDS011;3131;42.630;23.382;2022-09-30T12:01:15;14.90;;;3.00;;
6195;SDS011;3131;42.630;23.382;2022-09-30T12:03:50;10.17;;;3.60;;
6195;SDS011;3131;42.630;23.382;2022-09-30T12:06:23;7.20;;;3.30;;
6195;SDS011;3131;42.630;23.382;2022-09-30T12:08:57;11.23;;;3.57;;
6195;SDS011;3131;42.630;23.382;2022-09-30T12:11:32;12.23;;;3.40;;
6195;SDS011;3131;42.630;23.382;2022-09-30T12:14:06;8.63;;;3.63;;
6195;SDS011;3131;42.630;23.382;2022-09-30T12:16:38;4.20;;;2.90;;
6195;SDS011;3131;42.630;23.382;2022-09-30T12:19:12;5.33;;;2.92;;
6195;SDS011;3131;42.630;23.382;2022-09-30T12:21:46;6.07;;;2.80;;
6195;SDS011;3131;42.630;23.382;2022-09-30T12:24:19;5.00;;;2.95;;
6195;SDS011;3131;42.630;23.382;2022-09-30T12:26:52;9.60;;;3.25;;
6195;SDS011;3131;42.630;23.382;2022-09-30T12:29:23;15.00;;;4.03;;
6195;SDS011;3131;42.630;23.382;2022-09-30T12:32:19;3.80;;;2.33;;
6195;SDS011;3131;42.630;23.382;2022-09-30T12:35:19;11.90;;;2.20;;
6195;SDS011;3131;42.630;23.382;2022-09-30T12:41:06;3.77;;;1.85;;
6195;SDS011;3131;42.630;23.382;2022-09-30T12:43:55;12.55;;;2.95;;
6195;SDS011;3131;42.630;23.382;2022-09-30T12:46:59;3.55;;;1.87;;
6195;SDS011;3131;42.630;23.382;2022-09-30T12:49:52;10.82;;;1.85;;
6195;SDS011;3131;42.630;23.382;2022-09-30T12:52:24;5.08;;;2.15;;
6195;SDS011;3131;42.630;23.382;2022-09-30T12:54:55;3.90;;;1.82;;
6195;SDS011;3131;42.630;23.382;2022-09-30T12:57:28;4.13;;;1.60;;
6195;SDS011;3131;42.630;23.382;2022-09-30T13:00:02;7.50;;;1.70;;
6195;SDS011;3131;42.630;23.382;2022-09-30T13:02:48;3.27;;;1.80;;
6195;SDS011;3131;42.630;23.382;2022-09-30T13:05:45;3.20;;;1.77;;
6195;SDS011;3131;42.630;23.382;2022-09-30T13:08:24;2.10;;;1.42;;
6195;SDS011;3131;42.630;23.382;2022-09-30T13:11:32;5.70;;;2.50;;
6195;SDS011;3131;42.630;23.382;2022-09-30T13:14:13;4.10;;;2.20;;
6195;SDS011;3131;42.630;23.382;2022-09-30T13:17:01;4.35;;;2.47;;
6195;SDS011;3131;42.630;23.382;2022-09-30T13:19:48;5.90;;;2.00;;
6195;SDS011;3131;42.630;23.382;2022-09-30T13:25:25;2.65;;;1.60;;
6195;SDS011;3131;42.630;23.382;2022-09-30T13:28:25;4.85;;;1.87;;
6195;SDS011;3131;42.630;23.382;2022-09-30T13:31:11;3.05;;;1.82;;
6195;SDS011;3131;42.630;23.382;2022-09-30T13:33:47;3.20;;;1.70;;
6195;SDS011;3131;42.630;23.382;2022-09-30T13:36:37;6.22;;;1.85;;
6195;SDS011;3131;42.630;23.382;2022-09-30T13:39:13;3.87;;;1.90;;
6195;SDS011;3131;42.630;23.382;2022-09-30T13:41:49;10.03;;;2.33;;
6195;SDS011;3131;42.630;23.382;2022-09-30T13:44:48;2.22;;;1.52;;
6195;SDS011;3131;42.630;23.382;2022-09-30T13:47:24;8.85;;;1.92;;
6195;SDS011;3131;42.630;23.382;2022-09-30T13:49:56;6.05;;;2.30;;
6195;SDS011;3131;42.630;23.382;2022-09-30T13:52:28;4.03;;;1.90;;
6195;SDS011;3131;42.630;23.382;2022-09-30T13:55:05;9.90;;;2.15;;
6195;SDS011;3131;42.630;23.382;2022-09-30T13:57:33;3.17;;;1.62;;
6195;SDS011;3131;42.630;23.382;2022-09-30T14:00:07;4.62;;;1.67;;
6195;SDS011;3131;42.630;23.382;2022-09-30T14:02:45;7.55;;;2.33;;
6195;SDS011;3131;42.630;23.382;2022-09-30T14:05:40;3.47;;;1.47;;
6195;SDS011;3131;42.630;23.382;2022-09-30T14:08:33;15.55;;;2.92;;
6195;SDS011;3131;42.630;23.382;2022-09-30T14:11:12;2.25;;;1.50;;
6195;SDS011;3131;42.630;23.382;2022-09-30T14:13:48;2.72;;;1.57;;
6195;SDS011;3131;42.630;23.382;2022-09-30T14:19:46;4.28;;;1.45;;
6195;SDS011;3131;42.630;23.382;2022-09-30T14:22:32;3.00;;;1.55;;
6195;SDS011;3131;42.630;23.382;2022-09-30T14:25:08;3.85;;;1.50;;
6195;SDS011;3131;42.630;23.382;2022-09-30T14:27:42;1.72;;;1.60;;
6195;SDS011;3131;42.630;23.382;2022-09-30T14:30:24;6.42;;;1.67;;
6195;SDS011;3131;42.630;23.382;2022-09-30T14:32:54;5.20;;;1.67;;
6195;SDS011;3131;42.630;23.382;2022-09-30T14:35:27;8.50;;;1.98;;
6195;SDS011;3131;42.630;23.382;2022-09-30T14:37:59;7.83;;;2.35;;
6195;SDS011;3131;42.630;23.382;2022-09-30T14:40:31;5.15;;;3.67;;
6195;SDS011;3131;42.630;23.382;2022-09-30T14:43:02;4.65;;;1.85;;
6195;SDS011;3131;42.630;23.382;2022-09-30T14:45:35;11.18;;;2.37;;
6195;SDS011;3131;42.630;23.382;2022-09-30T14:48:08;2.45;;;1.80;;
6195;SDS011;3131;42.630;23.382;2022-09-30T14:50:41;5.10;;;1.72;;
6195;SDS011;3131;42.630;23.382;2022-09-30T14:53:25;2.98;;;1.60;;
6195;SDS011;3131;42.630;23.382;2022-09-30T14:55:56;11.60;;;3.12;;
6195;SDS011;3131;42.630;23.382;2022-09-30T14:58:43;3.85;;;2.12;;
6195;SDS011;3131;42.630;23.382;2022-09-30T15:01:13;5.62;;;1.87;;
6195;SDS011;3131;42.630;23.382;2022-09-30T15:03:44;4.10;;;1.87;;
6195;SDS011;3131;42.630;23.382;2022-09-30T15:06:17;6.60;;;2.12;;
6195;SDS011;3131;42.630;23.382;2022-09-30T15:08:48;5.10;;;1.93;;
6195;SDS011;3131;42.630;23.382;2022-09-30T15:11:20;9.25;;;3.85;;
6195;SDS011;3131;42.630;23.382;2022-09-30T15:13:56;4.63;;;2.00;;
6195;SDS011;3131;42.630;23.382;2022-09-30T15:16:26;2.57;;;1.80;;
6195;SDS011;3131;42.630;23.382;2022-09-30T15:19:14;3.63;;;1.53;;
6195;SDS011;3131;42.630;23.382;2022-09-30T15:21:46;6.60;;;2.60;;
6195;SDS011;3131;42.630;23.382;2022-09-30T15:24:18;12.10;;;3.07;;
6195;SDS011;3131;42.630;23.382;2022-09-30T15:26:49;10.53;;;2.63;;
6195;SDS011;3131;42.630;23.382;2022-09-30T15:29:20;4.07;;;1.90;;
6195;SDS011;3131;42.630;23.382;2022-09-30T15:31:51;4.03;;;2.00;;
6195;SDS011;3131;42.630;23.382;2022-09-30T15:34:23;10.63;;;2.30;;
6195;SDS011;3131;42.630;23.382;2022-09-30T15:36:57;2.40;;;1.93;;
6195;SDS011;3131;42.630;23.382;2022-09-30T15:39:29;6.27;;;2.60;;
6195;SDS011;3131;42.630;23.382;2022-09-30T15:42:28;5.87;;;2.63;;
6195;SDS011;3131;42.630;23.382;2022-09-30T15:45:01;6.37;;;3.10;;
6195;SDS011;3131;42.630;23.382;2022-09-30T15:47:31;6.60;;;2.33;;
6195;SDS011;3131;42.630;23.382;2022-09-30T15:50:02;13.53;;;3.90;;
6195;SDS011;3131;42.630;23.382;2022-09-30T15:52:36;6.37;;;2.70;;
6195;SDS011;3131;42.630;23.382;2022-09-30T16:01:25;4.53;;;2.60;;
6195;SDS011;3131;42.630;23.382;2022-09-30T16:04:01;4.17;;;2.60;;
6195;SDS011;3131;42.630;23.382;2022-09-30T16:06:35;6.40;;;2.80;;
6195;SDS011;3131;42.630;23.382;2022-09-30T16:09:06;5.97;;;2.63;;